aviador You're here:

TLPL Decoded Metar

HEWANDORRA in ST. LUCIA ISLAND
Report Time2017-11-20 00:00:00
UTC Time2017-11-20 00:27:09
Flight Rules mvfr MVFR
Wind090° at 12 kt
W.Decomp.*RWY 10: 12.0 kt HW 1.0 kt RCW
W.Rank090° ranks 1
Current wind is below 090° avg. (15.4)
Visibility9999 m
Phenomena:N/A
Clouds:Broken 026 Hf
Broken 270 Hf
Expected CloudBase > 2,000 ft AGL from Temp-Dew spread
Ceiling2,600 ft
Temp28°C (ISA +13)
Dew Point23°C (74% RH)
Heat Index31.2°C
QNH1011 hPa
Density Alt1,946 ft
Elevation10 ft
Report Wrong Elevation
Raw Report
TLPL 200000Z 09012KT 9999 BKN026 BKN270 28/23 Q1011 NOSIG=

Extra information for TLPL:More info

Metar Taf Metar & Taf Last 4 Metars F.Rules Stats Wind Profile Meteogram Temp Stats Airport Information Weather charts Add Link Nearby VenuesMetar ALERT Operation Metar Decoded Social comments